Time;durP1;ratioP1;P1;durP2;ratioP2;P2;SDS_P1;SDS_P2;PMS_P1;PMS_P2;Temp;Humidity;BMP_temperature;BMP_pressure;BME280_temperature;BME280_humidity;BME280_pressure;Samples;Min_cycle;Max_cycle;Signal;HPM_P1;HPM_P2
2022/03/27 00:01:12;;;;;;;17.10;13.77;;;11.20;99.90;;;;;;5049573;28;20227;-67
2022/03/27 00:03:39;;;;;;;13.88;12.43;;;11.20;99.90;;;;;;5047503;28;20220;-67
2022/03/27 00:06:06;;;;;;;14.25;12.85;;;11.20;99.90;;;;;;5050156;28;20220;-67
2022/03/27 00:08:33;;;;;;;10.80;9.80;;;11.10;99.90;;;;;;5049878;28;20225;-67
2022/03/27 00:13:44;;;;;;;15.70;12.07;;;11.10;99.90;;;;;;5043472;28;20228;-67
2022/03/27 00:16:16;;;;;;;12.75;10.95;;;11.10;99.90;;;;;;5051883;28;20224;-66
2022/03/27 00:18:44;;;;;;;12.10;10.43;;;11.10;99.90;;;;;;5051980;28;20291;-67
2022/03/27 00:21:13;;;;;;;12.38;11.13;;;11.10;99.90;;;;;;5052540;28;20228;-67
2022/03/27 00:23:44;;;;;;;12.32;11.05;;;11.10;99.90;;;;;;5053750;28;20283;-66
2022/03/27 00:26:13;;;;;;;13.85;12.45;;;11.10;99.90;;;;;;5052743;28;20251;-67
2022/03/27 00:28:42;;;;;;;15.65;13.13;;;11.10;99.90;;;;;;5054387;28;20584;-66
2022/03/27 00:31:12;;;;;;;15.15;12.57;;;11.10;99.90;;;;;;5054945;28;20290;-67
2022/03/27 00:33:44;;;;;;;13.02;10.95;;;11.10;99.90;;;;;;5054705;28;20217;-67
2022/03/27 00:36:17;;;;;;;12.00;10.90;;;11.10;99.90;;;;;;5055105;28;20593;-66
2022/03/27 00:38:46;;;;;;;12.60;11.43;;;11.00;99.90;;;;;;5054771;28;20282;-67
2022/03/27 00:41:15;;;;;;;13.30;11.98;;;11.10;99.90;;;;;;5044032;28;20235;-67
2022/03/27 00:43:44;;;;;;;15.98;12.27;;;11.00;99.90;;;;;;5041231;28;20245;-66
2022/03/27 00:46:12;;;;;;;13.35;12.05;;;11.00;99.90;;;;;;5052028;28;20679;-66
2022/03/27 00:48:41;;;;;;;13.73;12.38;;;11.00;99.90;;;;;;5054386;28;20229;-65
2022/03/27 00:51:09;;;;;;;13.00;11.43;;;11.00;99.90;;;;;;5057505;28;20216;-66
2022/03/27 00:53:38;;;;;;;12.95;11.75;;;10.90;99.90;;;;;;5054554;28;20225;-67
2022/03/27 00:56:06;;;;;;;13.30;11.90;;;10.90;99.90;;;;;;5054636;28;20221;-67
2022/03/27 00:58:33;;;;;;;14.13;12.63;;;10.90;99.90;;;;;;5054822;28;20236;-66
2022/03/27 01:01:16;;;;;;;13.95;11.95;;;10.90;99.90;;;;;;5053758;28;20319;-66
2022/03/27 01:03:47;;;;;;;15.30;13.73;;;10.90;99.90;;;;;;5054418;28;20228;-67
2022/03/27 01:06:24;;;;;;;13.55;12.18;;;10.80;99.90;;;;;;5054655;28;20225;-67
2022/03/27 01:11:37;;;;;;;13.77;11.95;;;10.80;99.90;;;;;;5054565;28;20239;-66
2022/03/27 01:14:04;;;;;;;13.82;12.50;;;10.80;99.90;;;;;;5053738;28;20979;-67
2022/03/27 01:16:40;;;;;;;13.10;11.73;;;10.80;99.90;;;;;;5053450;28;20225;-66
2022/03/27 01:19:11;;;;;;;13.13;11.93;;;10.80;99.90;;;;;;5052288;28;20220;-66
2022/03/27 01:21:43;;;;;;;14.05;12.55;;;10.80;99.90;;;;;;5054650;28;20247;-67
2022/03/27 01:24:11;;;;;;;12.95;11.57;;;10.70;99.90;;;;;;5041125;28;20221;-67
2022/03/27 01:26:44;;;;;;;13.43;12.13;;;10.70;99.90;;;;;;5052241;28;20256;-67
2022/03/27 01:29:11;;;;;;;14.57;13.18;;;10.70;99.90;;;;;;5054228;28;20245;-67
2022/03/27 01:31:39;;;;;;;14.52;13.00;;;10.70;99.90;;;;;;5054179;28;20232;-67
2022/03/27 01:34:06;;;;;;;15.95;13.45;;;10.60;99.90;;;;;;5053926;28;20226;-66
2022/03/27 01:36:35;;;;;;;14.23;12.82;;;10.70;99.90;;;;;;5054165;28;20296;-66
2022/03/27 01:39:06;;;;;;;18.90;12.90;;;10.60;99.90;;;;;;5053964;28;20225;-66
2022/03/27 01:41:36;;;;;;;14.40;12.88;;;10.60;99.90;;;;;;5054085;28;20323;-67
2022/03/27 01:44:07;;;;;;;14.38;12.43;;;10.60;99.90;;;;;;5053912;28;20235;-66
2022/03/27 01:46:40;;;;;;;14.68;13.30;;;10.60;99.90;;;;;;5053799;28;20304;-67
2022/03/27 01:49:13;;;;;;;14.35;13.05;;;10.60;99.90;;;;;;5045539;28;20224;-66
2022/03/27 01:51:41;;;;;;;16.80;15.13;;;10.50;99.90;;;;;;5053620;28;20323;-66
2022/03/27 01:54:10;;;;;;;14.15;12.85;;;10.50;99.90;;;;;;5053568;28;20225;-67
2022/03/27 01:56:38;;;;;;;13.90;12.43;;;10.50;99.90;;;;;;5054108;28;20225;-67
2022/03/27 01:59:06;;;;;;;14.60;13.23;;;10.50;99.90;;;;;;5053337;28;20228;-67
2022/03/27 02:01:34;;;;;;;15.15;13.20;;;10.50;99.90;;;;;;5053823;28;20707;-67
2022/03/27 02:04:01;;;;;;;13.73;12.35;;;10.50;99.90;;;;;;5053323;28;20224;-67
2022/03/27 02:06:28;;;;;;;16.45;13.82;;;10.50;99.90;;;;;;5053766;28;20232;-67
2022/03/27 02:08:55;;;;;;;14.93;13.40;;;10.50;99.90;;;;;;5053277;28;20233;-67
2022/03/27 02:11:23;;;;;;;14.55;12.45;;;10.40;99.90;;;;;;5053813;28;20225;-67
2022/03/27 02:13:51;;;;;;;15.60;13.13;;;10.50;99.90;;;;;;5052988;28;20212;-67
2022/03/27 02:16:18;;;;;;;12.88;11.63;;;10.50;99.90;;;;;;5053746;28;20235;-67
2022/03/27 02:18:46;;;;;;;13.75;12.45;;;10.40;99.90;;;;;;5053364;28;20221;-66
2022/03/27 02:21:13;;;;;;;16.73;13.65;;;10.50;99.90;;;;;;5053079;28;20239;-66
2022/03/27 02:23:41;;;;;;;17.58;11.90;;;10.40;99.90;;;;;;5052267;28;20221;-66
2022/03/27 02:26:08;;;;;;;15.43;13.10;;;10.40;99.90;;;;;;5052979;28;20312;-66
2022/03/27 02:28:36;;;;;;;16.02;14.32;;;10.40;99.90;;;;;;5053288;28;21162;-65
2022/03/27 02:31:04;;;;;;;15.48;13.88;;;10.30;99.90;;;;;;5052898;28;20224;-66
2022/03/27 02:33:31;;;;;;;16.27;14.55;;;10.30;99.90;;;;;;5053179;28;20264;-65
2022/03/27 02:35:58;;;;;;;18.65;15.73;;;10.30;99.90;;;;;;5052758;28;20256;-66
2022/03/27 02:38:26;;;;;;;18.83;16.92;;;10.30;99.90;;;;;;5052810;28;20217;-66
2022/03/27 02:40:54;;;;;;;19.40;15.55;;;10.30;99.90;;;;;;5052377;28;20245;-66
2022/03/27 02:43:21;;;;;;;17.02;15.23;;;10.20;99.90;;;;;;5052758;28;20220;-66
2022/03/27 02:45:50;;;;;;;18.27;15.48;;;10.30;99.90;;;;;;5053023;28;20247;-66
2022/03/27 02:48:17;;;;;;;17.48;15.75;;;10.20;99.90;;;;;;5052614;28;21011;-66
2022/03/27 02:50:44;;;;;;;20.52;17.45;;;10.20;99.90;;;;;;5052861;28;20225;-66
2022/03/27 02:53:12;;;;;;;18.60;16.02;;;10.20;99.90;;;;;;5052274;28;20232;-66
2022/03/27 02:55:39;;;;;;;19.05;16.20;;;10.20;99.90;;;;;;5053058;28;20235;-66
2022/03/27 02:58:06;;;;;;;18.67;16.77;;;10.10;99.90;;;;;;5052400;28;20240;-66
2022/03/27 03:00:34;;;;;;;18.52;16.58;;;10.20;99.90;;;;;;5052970;28;20625;-66
2022/03/27 03:03:02;;;;;;;17.20;15.40;;;10.10;99.90;;;;;;5052301;28;20733;-66
2022/03/27 03:05:29;;;;;;;15.75;14.18;;;10.10;99.90;;;;;;5052304;28;20697;-66
2022/03/27 03:07:58;;;;;;;15.85;14.30;;;10.10;99.90;;;;;;5052423;28;20225;-65
2022/03/27 03:10:26;;;;;;;16.95;15.23;;;10.10;99.90;;;;;;5052422;28;20236;-66
2022/03/27 03:12:53;;;;;;;20.05;15.48;;;10.10;99.90;;;;;;5052844;28;20236;-66
2022/03/27 03:15:20;;;;;;;17.40;15.60;;;10.10;99.90;;;;;;5052342;28;20230;-66
2022/03/27 03:17:47;;;;;;;18.17;16.13;;;10.00;99.90;;;;;;5052599;28;20232;-66
2022/03/27 03:20:16;;;;;;;25.17;18.48;;;10.00;99.90;;;;;;5051970;28;20303;-66
2022/03/27 03:22:44;;;;;;;19.85;17.70;;;10.00;99.90;;;;;;5051727;28;20691;-66
2022/03/27 03:25:12;;;;;;;18.88;17.00;;;9.90;99.90;;;;;;5051757;28;20349;-65
2022/03/27 03:27:40;;;;;;;19.15;16.75;;;9.90;99.90;;;;;;5052329;28;20220;-65
2022/03/27 03:30:11;;;;;;;19.30;17.30;;;9.90;99.90;;;;;;5051996;28;20217;-66
2022/03/27 03:32:37;;;;;;;18.17;16.40;;;9.80;99.90;;;;;;5052471;28;20227;-66
2022/03/27 03:35:06;;;;;;;18.52;16.58;;;9.80;99.90;;;;;;5051967;28;20817;-66
2022/03/27 03:37:34;;;;;;;18.33;16.63;;;9.80;99.90;;;;;;5052369;28;20221;-65
2022/03/27 03:40:02;;;;;;;18.85;16.95;;;9.90;99.90;;;;;;5051759;28;20885;-66
2022/03/27 03:42:35;;;;;;;19.67;17.65;;;9.90;99.90;;;;;;5052262;28;20303;-67
2022/03/27 03:45:03;;;;;;;20.30;17.42;;;9.80;99.90;;;;;;5051678;28;20236;-67
2022/03/27 03:47:31;;;;;;;19.67;17.80;;;9.80;99.90;;;;;;5052340;28;20221;-67
2022/03/27 03:49:58;;;;;;;18.92;16.80;;;9.80;99.90;;;;;;5052106;28;20614;-67
2022/03/27 03:52:25;;;;;;;19.08;17.00;;;9.70;99.90;;;;;;5056333;28;20358;-67
2022/03/27 03:54:54;;;;;;;17.58;15.90;;;9.70;99.90;;;;;;5056186;28;20231;-67
2022/03/27 03:57:21;;;;;;;20.27;18.27;;;9.70;99.90;;;;;;5055914;28;20224;-66
2022/03/27 03:59:48;;;;;;;20.52;18.52;;;9.70;99.90;;;;;;5056285;28;20303;-66
2022/03/27 04:02:18;;;;;;;19.13;17.33;;;9.60;99.90;;;;;;5055777;28;20239;-66
2022/03/27 04:04:45;;;;;;;18.98;17.08;;;9.70;99.90;;;;;;5043456;28;20304;-66
2022/03/27 04:07:12;;;;;;;20.25;18.10;;;9.60;99.90;;;;;;5055584;28;20221;-66
2022/03/27 04:09:39;;;;;;;19.00;16.85;;;9.60;99.90;;;;;;5056038;28;20216;-65
2022/03/27 04:12:09;;;;;;;17.70;15.95;;;9.50;99.90;;;;;;5055048;28;20240;-66
2022/03/27 04:14:36;;;;;;;19.27;17.45;;;9.50;99.90;;;;;;5056050;28;20678;-67
2022/03/27 04:17:03;;;;;;;18.98;16.73;;;9.50;99.90;;;;;;5055530;28;20299;-66
2022/03/27 04:19:31;;;;;;;23.10;17.55;;;9.50;99.90;;;;;;5047048;28;20220;-66
2022/03/27 04:21:58;;;;;;;19.95;17.90;;;9.50;99.90;;;;;;5055100;28;20299;-66
2022/03/27 04:24:24;;;;;;;19.58;17.70;;;9.40;99.90;;;;;;5054181;28;20986;-67
2022/03/27 04:26:51;;;;;;;20.95;18.15;;;9.50;99.90;;;;;;5054020;28;20221;-65
2022/03/27 04:29:19;;;;;;;20.05;18.08;;;9.50;99.90;;;;;;5055399;28;20248;-65
2022/03/27 04:31:46;;;;;;;19.65;17.58;;;9.40;99.90;;;;;;5055351;28;20347;-65
2022/03/27 04:34:13;;;;;;;18.48;16.58;;;9.50;99.90;;;;;;5055342;28;20304;-66
2022/03/27 04:36:41;;;;;;;19.73;17.90;;;9.50;99.90;;;;;;5055544;28;20239;-66
2022/03/27 04:39:08;;;;;;;19.83;17.65;;;9.50;99.90;;;;;;5055112;28;20290;-65
2022/03/27 04:41:35;;;;;;;17.90;16.10;;;9.50;99.90;;;;;;5055376;28;20659;-66
2022/03/27 04:44:02;;;;;;;19.25;17.35;;;9.40;99.90;;;;;;5054696;28;20243;-66
2022/03/27 04:46:31;;;;;;;18.92;16.70;;;9.50;99.90;;;;;;5054347;28;20221;-66
2022/03/27 04:48:58;;;;;;;19.65;17.55;;;9.50;99.90;;;;;;5054671;28;20556;-66
2022/03/27 04:51:25;;;;;;;17.63;15.93;;;9.50;99.90;;;;;;5053805;28;20656;-65
2022/03/27 04:53:52;;;;;;;23.63;18.52;;;9.50;99.90;;;;;;5054379;28;20223;-66
2022/03/27 04:56:22;;;;;;;18.83;16.80;;;9.50;99.90;;;;;;5053957;28;20322;-66
2022/03/27 04:58:48;;;;;;;17.27;15.48;;;9.50;99.90;;;;;;5054788;28;20235;-65
2022/03/27 05:01:15;;;;;;;20.05;17.55;;;9.50;99.90;;;;;;5054530;28;20567;-65
2022/03/27 05:03:43;;;;;;;18.10;16.40;;;9.50;99.90;;;;;;5054401;28;20224;-65
2022/03/27 05:06:10;;;;;;;20.40;18.33;;;9.50;99.90;;;;;;5054435;28;20236;-64
2022/03/27 05:08:37;;;;;;;21.40;17.48;;;9.50;99.90;;;;;;5054936;28;20225;-64
2022/03/27 05:11:06;;;;;;;18.98;17.00;;;9.50;99.90;;;;;;5054459;28;20604;-65
2022/03/27 05:13:33;;;;;;;19.10;17.02;;;9.50;99.90;;;;;;5053973;28;20224;-65
2022/03/27 05:16:00;;;;;;;19.45;17.50;;;9.50;99.90;;;;;;5053550;28;20231;-64
2022/03/27 05:18:26;;;;;;;18.27;16.67;;;9.50;99.90;;;;;;5054439;28;20227;-65
2022/03/27 05:20:54;;;;;;;17.20;14.10;;;9.50;99.90;;;;;;5054629;28;20689;-65
2022/03/27 05:23:21;;;;;;;15.57;13.95;;;9.50;99.90;;;;;;5054035;28;20225;-65
2022/03/27 05:25:50;;;;;;;17.90;15.35;;;9.60;99.90;;;;;;5054614;28;20687;-65
2022/03/27 05:28:18;;;;;;;16.25;14.70;;;9.60;99.90;;;;;;5054202;28;20236;-65
2022/03/27 05:30:46;;;;;;;16.58;14.98;;;9.60;99.90;;;;;;5041149;28;20225;-65
2022/03/27 05:33:13;;;;;;;15.75;14.15;;;9.60;99.90;;;;;;5054131;28;20221;-65
2022/03/27 05:35:41;;;;;;;17.17;15.48;;;9.60;99.90;;;;;;5054363;28;20225;-65
2022/03/27 05:38:10;;;;;;;18.38;16.45;;;9.60;99.90;;;;;;5053993;28;20224;-66
2022/03/27 05:40:43;;;;;;;16.60;14.90;;;9.60;99.90;;;;;;5054464;28;20236;-66
2022/03/27 05:43:09;;;;;;;17.00;15.23;;;9.70;99.90;;;;;;5053884;28;20235;-66
2022/03/27 05:45:37;;;;;;;17.38;14.90;;;9.70;99.90;;;;;;5054391;28;20565;-66
2022/03/27 05:48:04;;;;;;;16.77;15.18;;;9.70;99.90;;;;;;5054328;28;20229;-66
2022/03/27 05:50:31;;;;;;;17.95;16.20;;;9.70;99.90;;;;;;5053737;28;20225;-66
2022/03/27 05:52:58;;;;;;;15.85;14.25;;;9.80;99.90;;;;;;5054088;28;20236;-66
2022/03/27 05:55:26;;;;;;;15.85;14.30;;;9.80;99.90;;;;;;5053616;28;20220;-66
2022/03/27 05:57:53;;;;;;;16.40;14.80;;;9.80;99.90;;;;;;5054114;28;20682;-66
2022/03/27 06:00:21;;;;;;;31.35;25.58;;;9.90;99.90;;;;;;5053500;28;20234;-65
2022/03/27 06:02:49;;;;;;;36.20;29.23;;;9.90;99.90;;;;;;5054121;28;20286;-65
2022/03/27 06:05:23;;;;;;;30.00;24.25;;;10.00;99.90;;;;;;5053282;28;20221;-65
2022/03/27 06:07:52;;;;;;;21.88;19.52;;;10.00;99.90;;;;;;5053798;28;20223;-65
2022/03/27 06:10:23;;;;;;;18.38;16.60;;;10.00;99.90;;;;;;5053401;28;20259;-66
2022/03/27 06:12:51;;;;;;;43.03;32.35;;;10.00;99.90;;;;;;5053624;28;20217;-66
2022/03/27 06:15:19;;;;;;;29.73;23.95;;;10.00;99.90;;;;;;5052036;28;20235;-66
2022/03/27 06:17:48;;;;;;;24.83;22.30;;;10.10;99.90;;;;;;5053827;28;20240;-66
2022/03/27 06:20:16;;;;;;;25.38;21.75;;;10.10;99.90;;;;;;5052927;28;20679;-65
2022/03/27 06:22:44;;;;;;;22.45;20.20;;;10.10;99.90;;;;;;5045043;28;20584;-65
2022/03/27 06:25:13;;;;;;;25.17;22.52;;;10.10;99.90;;;;;;5052651;28;20312;-65
2022/03/27 06:27:40;;;;;;;25.98;23.23;;;10.10;99.90;;;;;;5053405;28;20216;-66
2022/03/27 06:30:13;;;;;;;26.48;23.42;;;10.10;99.90;;;;;;5040175;28;20225;-65
2022/03/27 06:32:41;;;;;;;25.70;23.20;;;10.10;99.90;;;;;;5053139;28;20943;-65
2022/03/27 06:35:09;;;;;;;26.65;24.08;;;10.20;99.90;;;;;;5053413;28;20217;-66
2022/03/27 06:37:37;;;;;;;28.70;25.60;;;10.20;99.90;;;;;;5052685;28;20678;-65
2022/03/27 06:40:05;;;;;;;32.35;27.70;;;10.20;99.90;;;;;;5053363;28;20216;-65
2022/03/27 06:42:31;;;;;;;26.98;24.40;;;10.20;99.90;;;;;;5052683;28;20228;-66
2022/03/27 06:44:59;;;;;;;25.20;22.67;;;10.20;99.90;;;;;;5053193;28;20266;-67
2022/03/27 06:47:29;;;;;;;25.20;22.40;;;10.20;99.90;;;;;;5052651;28;20221;-65
2022/03/27 06:49:57;;;;;;;28.98;23.98;;;10.30;99.90;;;;;;5053104;28;20709;-65
2022/03/27 06:52:25;;;;;;;25.27;22.33;;;10.30;99.90;;;;;;5052250;28;20682;-65
2022/03/27 06:54:52;;;;;;;24.77;22.25;;;10.40;99.90;;;;;;5053204;28;20236;-65
2022/03/27 06:57:19;;;;;;;25.98;23.10;;;10.40;99.90;;;;;;5052479;28;20224;-65
2022/03/27 07:05:16;;;;;;;23.45;21.05;;;10.50;99.90;;;;;;5052815;28;20359;-66
2022/03/27 07:07:49;;;;;;;26.60;23.83;;;10.60;99.90;;;;;;5052607;28;20238;-66
2022/03/27 07:10:16;;;;;;;25.90;23.30;;;10.60;99.90;;;;;;5052662;28;20232;-65
2022/03/27 07:12:44;;;;;;;23.45;21.08;;;10.70;99.90;;;;;;5052514;28;21011;-65
2022/03/27 07:15:11;;;;;;;17.35;15.55;;;10.70;99.90;;;;;;5052587;28;20279;-66
2022/03/27 07:17:46;;;;;;;16.95;15.20;;;10.80;99.90;;;;;;5051743;28;20242;-65
2022/03/27 07:20:13;;;;;;;14.07;12.70;;;10.90;99.90;;;;;;5051236;28;20231;-65
2022/03/27 07:22:40;;;;;;;15.20;13.70;;;11.00;99.90;;;;;;5044163;28;20287;-64
2022/03/27 07:25:09;;;;;;;15.38;13.40;;;11.00;99.90;;;;;;5051264;28;20286;-65
2022/03/27 07:27:37;;;;;;;15.32;13.90;;;11.10;99.90;;;;;;5052162;28;20221;-66
2022/03/27 07:30:04;;;;;;;16.10;14.60;;;11.20;99.90;;;;;;5052319;28;20250;-65
2022/03/27 07:32:31;;;;;;;14.60;13.30;;;11.20;99.90;;;;;;5051967;28;20231;-65
2022/03/27 07:34:59;;;;;;;15.73;14.27;;;11.30;99.90;;;;;;5039248;28;20232;-65
2022/03/27 07:37:26;;;;;;;15.43;14.02;;;11.40;99.90;;;;;;5051889;28;20678;-66
2022/03/27 07:39:53;;;;;;;14.52;13.13;;;11.40;99.90;;;;;;5052356;28;20690;-67
2022/03/27 07:42:21;;;;;;;16.92;15.32;;;11.50;99.90;;;;;;5052290;28;20232;-68
2022/03/27 07:44:48;;;;;;;16.95;15.45;;;11.60;99.90;;;;;;5052330;28;20242;-67
2022/03/27 07:47:15;;;;;;;14.88;13.38;;;11.60;99.90;;;;;;5052258;28;20225;-68
2022/03/27 07:49:42;;;;;;;18.58;16.67;;;11.70;99.90;;;;;;5051895;28;20308;-66
2022/03/27 07:52:10;;;;;;;17.40;15.80;;;11.80;99.90;;;;;;5052112;28;20331;-67
2022/03/27 07:54:37;;;;;;;17.05;15.45;;;11.80;99.90;;;;;;5051931;28;20326;-67
2022/03/27 07:57:06;;;;;;;16.35;14.77;;;11.90;99.90;;;;;;5052353;28;20574;-67
2022/03/27 07:59:33;;;;;;;15.88;14.30;;;12.00;99.90;;;;;;5051827;28;20235;-67
2022/03/27 08:02:01;;;;;;;15.52;14.00;;;12.00;99.90;;;;;;5052167;28;20232;-67
2022/03/27 08:04:28;;;;;;;14.98;13.57;;;12.10;99.90;;;;;;5051717;28;20232;-67
2022/03/27 08:06:55;;;;;;;15.55;14.07;;;12.20;99.90;;;;;;5052144;28;20679;-67
2022/03/27 08:09:23;;;;;;;15.43;13.82;;;12.20;99.90;;;;;;5052013;28;20228;-67
2022/03/27 08:11:50;;;;;;;14.75;13.35;;;12.30;99.90;;;;;;5051703;28;20224;-67
2022/03/27 08:14:17;;;;;;;14.70;13.05;;;12.30;99.90;;;;;;5047659;28;20591;-68
2022/03/27 08:16:44;;;;;;;13.60;12.20;;;12.40;99.90;;;;;;5051743;28;20225;-67
2022/03/27 08:19:11;;;;;;;11.93;10.82;;;12.50;99.90;;;;;;5051964;28;20229;-67
2022/03/27 08:21:39;;;;;;;13.98;12.57;;;12.60;99.90;;;;;;5051508;28;20235;-68
2022/03/27 08:24:06;;;;;;;14.15;12.75;;;12.70;99.90;;;;;;5048488;28;20235;-67
2022/03/27 08:29:18;;;;;;;14.43;13.10;;;12.80;99.90;;;;;;5052389;28;20299;-67
2022/03/27 08:31:45;;;;;;;13.50;12.10;;;12.90;99.90;;;;;;5050980;28;20228;-67
2022/03/27 08:34:13;;;;;;;11.65;10.48;;;12.90;99.90;;;;;;5051293;28;20221;-67
2022/03/27 08:36:40;;;;;;;12.68;11.48;;;13.00;99.90;;;;;;5051554;28;20237;-67
2022/03/27 08:39:08;;;;;;;15.20;13.75;;;13.10;99.90;;;;;;5055535;28;20217;-67
2022/03/27 08:41:37;;;;;;;14.32;12.93;;;13.10;99.90;;;;;;5055020;28;20756;-66
2022/03/27 08:44:04;;;;;;;14.45;13.02;;;13.20;99.90;;;;;;5055273;28;20232;-66
2022/03/27 08:46:32;;;;;;;11.70;10.48;;;13.20;99.90;;;;;;5054959;28;20255;-66
2022/03/27 08:49:01;;;;;;;13.50;12.10;;;13.30;99.90;;;;;;5055108;28;20236;-66
2022/03/27 08:51:33;;;;;;;16.52;13.27;;;13.40;99.90;;;;;;5055018;28;20560;-69
2022/03/27 08:54:04;;;;;;;13.88;12.48;;;13.40;99.90;;;;;;5055359;28;20225;-66
2022/03/27 08:56:39;;;;;;;13.82;12.52;;;13.50;99.90;;;;;;5054857;28;20232;-67
2022/03/27 08:59:09;;;;;;;14.50;13.15;;;13.60;99.90;;;;;;5055282;28;20230;-67
2022/03/27 09:01:38;;;;;;;15.32;13.80;;;13.60;99.90;;;;;;5054858;28;20241;-67
2022/03/27 09:04:06;;;;;;;13.13;11.80;;;13.60;99.90;;;;;;5055184;28;20225;-67
2022/03/27 09:06:33;;;;;;;15.43;13.90;;;13.70;99.90;;;;;;5054600;28;20217;-67
2022/03/27 09:09:00;;;;;;;14.82;13.45;;;13.70;99.90;;;;;;5055269;28;20224;-67
2022/03/27 09:11:32;;;;;;;17.25;14.32;;;13.70;99.80;;;;;;5054981;28;20323;-66
2022/03/27 09:14:00;;;;;;;14.70;13.32;;;13.80;99.90;;;;;;5054604;28;21036;-69
2022/03/27 09:16:29;;;;;;;14.52;13.23;;;13.80;99.80;;;;;;5055124;28;20259;-67
2022/03/27 09:19:02;;;;;;;11.87;10.87;;;13.90;99.50;;;;;;5054575;28;20221;-67
2022/03/27 09:21:30;;;;;;;14.60;13.13;;;14.00;99.40;;;;;;5054786;28;20467;-67
2022/03/27 09:24:00;;;;;;;12.40;11.23;;;14.00;99.30;;;;;;5054317;28;20228;-66
2022/03/27 09:26:31;;;;;;;17.55;15.75;;;14.10;99.20;;;;;;5054776;28;20221;-66
2022/03/27 09:29:09;;;;;;;15.35;13.52;;;14.10;99.00;;;;;;5054316;28;20826;-67
2022/03/27 09:31:38;;;;;;;14.70;13.27;;;14.20;98.90;;;;;;5054707;28;20688;-67
2022/03/27 09:34:07;;;;;;;12.00;10.80;;;14.30;98.80;;;;;;5054236;28;21625;-66
2022/03/27 09:36:39;;;;;;;14.97;13.50;;;14.30;98.60;;;;;;5054559;28;20857;-67
2022/03/27 09:39:13;;;;;;;17.77;15.90;;;14.50;98.20;;;;;;5054249;28;20513;-67
2022/03/27 09:41:45;;;;;;;17.83;16.03;;;14.50;98.00;;;;;;5054283;28;20471;-67
2022/03/27 09:44:15;;;;;;;15.53;13.93;;;14.60;97.70;;;;;;5054213;28;20459;-67
2022/03/27 09:46:58;;;;;;;11.27;10.17;;;14.60;97.00;;;;;;5054442;28;20494;-67
2022/03/27 09:49:38;;;;;;;10.47;9.47;;;14.70;96.60;;;;;;5054495;28;20467;-66
2022/03/27 09:52:08;;;;;;;9.60;8.70;;;14.70;96.40;;;;;;5054446;28;20471;-67
2022/03/27 09:54:51;;;;;;;9.70;8.80;;;14.60;96.10;;;;;;5054009;28;20797;-67
2022/03/27 09:57:24;;;;;;;9.47;8.50;;;14.60;96.00;;;;;;5053738;28;20542;-67
2022/03/27 09:59:51;;;;;;;9.17;8.27;;;14.60;96.00;;;;;;5054168;28;20476;-67
2022/03/27 10:02:25;;;;;;;11.43;10.40;;;14.60;96.00;;;;;;5053570;28;20463;-66
2022/03/27 10:04:53;;;;;;;11.33;9.97;;;14.60;96.20;;;;;;5054055;28;20462;-67
2022/03/27 10:07:22;;;;;;;9.40;8.50;;;14.70;95.80;;;;;;5053556;28;20478;-67
2022/03/27 10:09:49;;;;;;;8.73;8.03;;;14.70;95.60;;;;;;5053917;28;20491;-66
2022/03/27 10:12:17;;;;;;;8.10;7.37;;;14.70;95.20;;;;;;5053269;28;20982;-67
2022/03/27 10:14:46;;;;;;;8.30;7.50;;;14.80;95.10;;;;;;5053932;28;20470;-68
2022/03/27 10:17:15;;;;;;;7.20;6.60;;;14.90;94.90;;;;;;5053366;28;20471;-68
2022/03/27 10:19:47;;;;;;;8.97;7.20;;;14.90;94.80;;;;;;5053705;28;20463;-66
2022/03/27 10:22:20;;;;;;;7.70;6.20;;;15.00;94.60;;;;;;5053239;28;20467;-66
2022/03/27 10:24:49;;;;;;;5.30;4.90;;;15.00;94.20;;;;;;5053582;28;20467;-66
2022/03/27 10:27:18;;;;;;;6.13;5.60;;;15.10;93.80;;;;;;5053218;28;20481;-66
2022/03/27 10:29:46;;;;;;;5.70;5.20;;;15.10;93.60;;;;;;5053604;28;20466;-68
2022/03/27 10:32:14;;;;;;;5.50;5.00;;;15.10;93.40;;;;;;5052898;28;20471;-68
2022/03/27 10:34:55;;;;;;;6.37;5.53;;;15.20;93.30;;;;;;5053386;28;20470;-67
2022/03/27 10:37:31;;;;;;;7.23;6.53;;;15.20;93.20;;;;;;5052851;28;20466;-66
2022/03/27 10:40:06;;;;;;;7.07;6.37;;;15.20;92.80;;;;;;5053451;28;20467;-67
2022/03/27 10:42:47;;;;;;;6.67;6.00;;;15.20;92.70;;;;;;5053127;28;20470;-68
2022/03/27 10:45:17;;;;;;;6.63;5.93;;;15.20;92.70;;;;;;5053012;28;20810;-68
2022/03/27 10:47:44;;;;;;;7.70;6.90;;;15.30;92.70;;;;;;5053055;28;20503;-67
2022/03/27 10:50:24;;;;;;;7.43;6.83;;;15.30;92.60;;;;;;5053127;28;20875;-67
2022/03/27 10:53:09;;;;;;;7.23;6.53;;;15.40;92.50;;;;;;5053525;28;20510;-67
2022/03/27 10:55:38;;;;;;;7.93;6.93;;;15.50;92.40;;;;;;5053084;28;20458;-67
2022/03/27 10:58:28;;;;;;;7.00;6.30;;;15.50;92.20;;;;;;5053035;28;20467;-67
2022/03/27 11:00:55;;;;;;;13.57;11.00;;;15.60;91.80;;;;;;5052113;28;20521;-66
2022/03/27 11:04:04;;;;;;;11.10;9.90;;;15.60;91.70;;;;;;5052959;28;20863;-68
2022/03/27 11:06:34;;;;;;;9.53;8.63;;;15.70;91.70;;;;;;5052811;28;20467;-67
2022/03/27 11:09:03;;;;;;;7.30;6.60;;;15.70;91.60;;;;;;5052985;28;20480;-67
2022/03/27 11:11:56;;;;;;;6.93;6.30;;;15.70;91.30;;;;;;5052255;28;20476;-67
2022/03/27 11:14:45;;;;;;;6.93;6.20;;;15.70;91.10;;;;;;5052330;28;20473;-66
2022/03/27 11:17:14;;;;;;;6.90;6.30;;;15.80;90.70;;;;;;5052595;28;20481;-67
2022/03/27 11:19:43;;;;;;;5.83;5.30;;;15.80;90.50;;;;;;5052389;28;20470;-67
2022/03/27 11:22:44;;;;;;;7.07;6.40;;;15.80;90.60;;;;;;5052401;28;20988;-68
2022/03/27 11:25:26;;;;;;;8.20;7.40;;;15.90;90.50;;;;;;5052480;28;20455;-67
2022/03/27 11:27:55;;;;;;;5.90;5.50;;;15.90;90.50;;;;;;5052758;28;20470;-67
2022/03/27 11:30:21;;;;;;;5.93;5.43;;;16.00;90.30;;;;;;5052088;28;20940;-67
2022/03/27 11:33:16;;;;;;;6.43;5.83;;;16.00;90.30;;;;;;5052562;28;20966;-66
2022/03/27 11:36:04;;;;;;;6.53;6.00;;;16.10;90.10;;;;;;5052479;28;20447;-67
2022/03/27 11:38:32;;;;;;;7.10;6.50;;;16.10;90.00;;;;;;5052343;28;20463;-67
2022/03/27 11:41:22;;;;;;;5.97;5.40;;;16.10;89.90;;;;;;5052125;28;20479;-67
2022/03/27 11:43:50;;;;;;;7.10;6.20;;;16.20;89.70;;;;;;5052072;28;20467;-66
2022/03/27 11:46:23;;;;;;;6.57;5.90;;;16.20;90.10;;;;;;5052582;28;20803;-66
2022/03/27 11:48:54;;;;;;;7.03;6.30;;;16.30;88.70;;;;;;5051985;28;20459;-67
2022/03/27 11:51:24;;;;;;;5.33;4.90;;;16.30;87.80;;;;;;5052127;28;20467;-67
2022/03/27 11:53:51;;;;;;;6.77;5.60;;;16.20;86.30;;;;;;5051933;28;20992;-67
2022/03/27 11:56:20;;;;;;;4.70;4.30;;;16.20;85.60;;;;;;5052278;28;20463;-66
2022/03/27 11:59:03;;;;;;;7.00;6.30;;;16.20;84.80;;;;;;5051905;28;20470;-66
2022/03/27 12:01:30;;;;;;;7.10;6.40;;;16.30;85.10;;;;;;5052197;28;20977;-66
2022/03/27 12:03:58;;;;;;;5.73;5.20;;;16.30;84.80;;;;;;5051964;28;20776;-67
2022/03/27 12:06:28;;;;;;;7.70;6.60;;;16.40;84.70;;;;;;5052190;28;20993;-66
2022/03/27 12:08:56;;;;;;;5.20;4.70;;;16.50;84.40;;;;;;5051577;28;20484;-66
2022/03/27 12:11:26;;;;;;;6.83;4.87;;;16.60;84.20;;;;;;5052259;28;20477;-66
2022/03/27 12:13:56;;;;;;;5.97;5.47;;;16.60;84.90;;;;;;5054794;28;21043;-67
2022/03/27 12:16:25;;;;;;;6.00;5.20;;;16.60;83.50;;;;;;5055967;28;20481;-67
2022/03/27 12:18:52;;;;;;;5.03;4.57;;;16.60;82.70;;;;;;5055798;28;20464;-66
2022/03/27 12:21:21;;;;;;;3.93;3.63;;;16.60;82.80;;;;;;5055981;28;20986;-66
2022/03/27 12:23:50;;;;;;;4.60;4.20;;;16.60;82.60;;;;;;5055313;28;20471;-66
2022/03/27 12:32:05;;;;;;;5.30;4.70;;;16.70;82.10;;;;;;5055332;28;20630;-67
2022/03/27 12:34:33;;;;;;;6.63;5.10;;;16.70;82.00;;;;;;5055819;28;20481;-67
2022/03/27 12:37:12;;;;;;;4.33;3.93;;;16.70;81.70;;;;;;5055052;28;20466;-67
2022/03/27 12:39:42;;;;;;;4.80;4.33;;;16.70;80.80;;;;;;5055754;28;20506;-66
2022/03/27 12:42:35;;;;;;;4.07;3.77;;;16.70;80.50;;;;;;5055451;28;20468;-67
2022/03/27 12:45:06;;;;;;;4.00;3.63;;;16.80;80.20;;;;;;5055089;28;20960;-67
2022/03/27 12:47:35;;;;;;;4.27;3.97;;;16.80;79.80;;;;;;5055707;28;20475;-67
2022/03/27 12:50:03;;;;;;;3.00;2.80;;;16.90;79.80;;;;;;5055030;28;20457;-67
2022/03/27 12:52:30;;;;;;;4.90;4.50;;;16.90;79.50;;;;;;5055176;28;20473;-67
2022/03/27 12:54:59;;;;;;;7.83;6.77;;;17.00;79.20;;;;;;5054952;28;20469;-67
2022/03/27 12:57:48;;;;;;;5.80;5.30;;;17.00;78.20;;;;;;5055042;28;20473;-66
2022/03/27 13:00:17;;;;;;;5.80;5.30;;;17.00;77.90;;;;;;5054914;28;20452;-67
2022/03/27 13:02:44;;;;;;;4.67;4.27;;;17.00;77.70;;;;;;5055114;28;20464;-67
2022/03/27 13:05:11;;;;;;;4.43;4.03;;;17.00;77.60;;;;;;5054813;28;20470;-67